sensor_id;sensor_type;location;lat;lon;timestamp;temperature;humidity
16289;DHT22;26089;43.538;5.250;2023-02-07T00:33:06;6.00;99.90
16289;DHT22;26089;43.538;5.250;2023-02-07T00:35:33;5.60;99.90
16289;DHT22;26089;43.538;5.250;2023-02-07T00:38:00;5.60;99.90
16289;DHT22;26089;43.538;5.250;2023-02-07T00:40:27;5.60;99.90
16289;DHT22;26089;43.538;5.250;2023-02-07T00:42:54;5.10;99.90
16289;DHT22;26089;43.538;5.250;2023-02-07T00:45:21;5.70;99.90
16289;DHT22;26089;43.538;5.250;2023-02-07T00:47:48;6.30;99.90
16289;DHT22;26089;43.538;5.250;2023-02-07T00:50:16;5.70;99.90
16289;DHT22;26089;43.538;5.250;2023-02-07T00:52:43;6.30;99.90
16289;DHT22;26089;43.538;5.250;2023-02-07T00:55:10;5.90;99.90
16289;DHT22;26089;43.538;5.250;2023-02-07T00:57:37;5.90;99.90
16289;DHT22;26089;43.538;5.250;2023-02-07T01:00:05;5.80;99.90
16289;DHT22;26089;43.538;5.250;2023-02-07T01:02:32;5.80;99.90
16289;DHT22;26089;43.538;5.250;2023-02-07T01:04:59;5.70;99.90
16289;DHT22;26089;43.538;5.250;2023-02-07T01:07:27;5.60;99.90
16289;DHT22;26089;43.538;5.250;2023-02-07T01:09:54;5.70;99.90
16289;DHT22;26089;43.538;5.250;2023-02-07T01:12:21;6.10;99.90
16289;DHT22;26089;43.538;5.250;2023-02-07T01:15:13;5.00;99.90
16289;DHT22;26089;43.538;5.250;2023-02-07T01:17:41;5.70;99.90
16289;DHT22;26089;43.538;5.250;2023-02-07T01:20:09;5.70;99.90
16289;DHT22;26089;43.538;5.250;2023-02-07T01:22:38;6.20;99.90
16289;DHT22;26089;43.538;5.250;2023-02-07T01:25:06;5.90;99.90
16289;DHT22;26089;43.538;5.250;2023-02-07T01:27:34;6.00;99.90
16289;DHT22;26089;43.538;5.250;2023-02-07T01:30:02;6.00;99.90
16289;DHT22;26089;43.538;5.250;2023-02-07T01:32:31;6.10;99.90
16289;DHT22;26089;43.538;5.250;2023-02-07T01:34:58;5.80;99.90
16289;DHT22;26089;43.538;5.250;2023-02-07T01:37:25;6.10;99.90
16289;DHT22;26089;43.538;5.250;2023-02-07T01:39:54;6.20;99.90
16289;DHT22;26089;43.538;5.250;2023-02-07T01:42:23;6.50;99.90
16289;DHT22;26089;43.538;5.250;2023-02-07T01:45:17;6.30;99.90
16289;DHT22;26089;43.538;5.250;2023-02-07T01:47:48;6.30;99.90
16289;DHT22;26089;43.538;5.250;2023-02-07T01:50:15;6.60;99.90
16289;DHT22;26089;43.538;5.250;2023-02-07T01:52:43;6.00;99.90
16289;DHT22;26089;43.538;5.250;2023-02-07T01:55:16;6.60;99.90
16289;DHT22;26089;43.538;5.250;2023-02-07T01:57:45;6.80;99.90
16289;DHT22;26089;43.538;5.250;2023-02-07T02:00:13;6.90;99.90
16289;DHT22;26089;43.538;5.250;2023-02-07T02:02:42;7.00;99.90
16289;DHT22;26089;43.538;5.250;2023-02-07T02:05:10;7.00;99.90
16289;DHT22;26089;43.538;5.250;2023-02-07T02:07:38;7.10;99.90
16289;DHT22;26089;43.538;5.250;2023-02-07T02:10:09;7.10;99.90
16289;DHT22;26089;43.538;5.250;2023-02-07T02:12:59;7.10;99.90
16289;DHT22;26089;43.538;5.250;2023-02-07T02:15:35;7.10;99.90
16289;DHT22;26089;43.538;5.250;2023-02-07T02:18:24;7.30;99.90
16289;DHT22;26089;43.538;5.250;2023-02-07T02:24:38;7.20;99.90
16289;DHT22;26089;43.538;5.250;2023-02-07T02:27:10;7.30;99.90
16289;DHT22;26089;43.538;5.250;2023-02-07T02:35:57;7.60;99.90
16289;DHT22;26089;43.538;5.250;2023-02-07T02:38:32;7.70;99.90
16289;DHT22;26089;43.538;5.250;2023-02-07T02:41:03;7.90;99.90
16289;DHT22;26089;43.538;5.250;2023-02-07T02:43:35;7.80;99.90
16289;DHT22;26089;43.538;5.250;2023-02-07T02:46:09;8.10;99.90
16289;DHT22;26089;43.538;5.250;2023-02-07T02:48:40;7.70;99.90
16289;DHT22;26089;43.538;5.250;2023-02-07T02:51:07;7.50;99.90
16289;DHT22;26089;43.538;5.250;2023-02-07T02:53:34;8.30;99.90
16289;DHT22;26089;43.538;5.250;2023-02-07T02:56:16;7.90;99.90
16289;DHT22;26089;43.538;5.250;2023-02-07T02:59:04;7.90;99.90
16289;DHT22;26089;43.538;5.250;2023-02-07T03:01:46;7.90;99.90
16289;DHT22;26089;43.538;5.250;2023-02-07T03:04:30;7.90;99.90
16289;DHT22;26089;43.538;5.250;2023-02-07T03:07:09;7.90;99.90
16289;DHT22;26089;43.538;5.250;2023-02-07T03:09:47;7.90;99.90
16289;DHT22;26089;43.538;5.250;2023-02-07T03:12:24;8.50;99.90
16289;DHT22;26089;43.538;5.250;2023-02-07T03:14:56;7.90;99.90
16289;DHT22;26089;43.538;5.250;2023-02-07T03:17:30;7.90;99.90
16289;DHT22;26089;43.538;5.250;2023-02-07T03:20:06;7.90;99.90
16289;DHT22;26089;43.538;5.250;2023-02-07T03:22:34;7.80;99.90
16289;DHT22;26089;43.538;5.250;2023-02-07T03:25:03;7.90;99.90
16289;DHT22;26089;43.538;5.250;2023-02-07T03:27:32;7.80;99.90
16289;DHT22;26089;43.538;5.250;2023-02-07T03:30:03;7.40;99.90
16289;DHT22;26089;43.538;5.250;2023-02-07T03:32:35;7.80;99.90
16289;DHT22;26089;43.538;5.250;2023-02-07T03:35:08;7.80;99.90
16289;DHT22;26089;43.538;5.250;2023-02-07T03:37:38;8.00;99.90
16289;DHT22;26089;43.538;5.250;2023-02-07T03:40:08;7.80;99.90
16289;DHT22;26089;43.538;5.250;2023-02-07T03:42:39;7.80;99.90
16289;DHT22;26089;43.538;5.250;2023-02-07T03:45:10;7.80;99.90
16289;DHT22;26089;43.538;5.250;2023-02-07T03:47:38;7.70;99.90
16289;DHT22;26089;43.538;5.250;2023-02-07T03:50:06;7.60;99.90
16289;DHT22;26089;43.538;5.250;2023-02-07T03:52:33;7.60;99.90
16289;DHT22;26089;43.538;5.250;2023-02-07T03:55:00;7.70;99.90
16289;DHT22;26089;43.538;5.250;2023-02-07T03:57:27;7.70;99.90
16289;DHT22;26089;43.538;5.250;2023-02-07T03:59:54;7.70;99.90
16289;DHT22;26089;43.538;5.250;2023-02-07T04:02:21;7.70;99.90
16289;DHT22;26089;43.538;5.250;2023-02-07T04:04:48;7.70;99.90
16289;DHT22;26089;43.538;5.250;2023-02-07T04:07:17;7.70;99.90
16289;DHT22;26089;43.538;5.250;2023-02-07T04:09:44;8.00;99.90
16289;DHT22;26089;43.538;5.250;2023-02-07T04:12:11;7.70;99.90
16289;DHT22;26089;43.538;5.250;2023-02-07T04:14:38;8.00;99.90
16289;DHT22;26089;43.538;5.250;2023-02-07T04:17:05;7.70;99.90
16289;DHT22;26089;43.538;5.250;2023-02-07T04:19:32;7.70;99.90
16289;DHT22;26089;43.538;5.250;2023-02-07T04:21:59;7.70;99.90
16289;DHT22;26089;43.538;5.250;2023-02-07T04:24:27;7.70;99.90
16289;DHT22;26089;43.538;5.250;2023-02-07T04:26:56;7.60;99.90
16289;DHT22;26089;43.538;5.250;2023-02-07T04:29:23;7.60;99.90
16289;DHT22;26089;43.538;5.250;2023-02-07T04:31:50;7.60;99.90
16289;DHT22;26089;43.538;5.250;2023-02-07T04:34:17;7.60;99.90
16289;DHT22;26089;43.538;5.250;2023-02-07T04:36:44;7.60;99.90
16289;DHT22;26089;43.538;5.250;2023-02-07T04:39:11;7.60;99.90
16289;DHT22;26089;43.538;5.250;2023-02-07T04:41:39;7.60;99.90
16289;DHT22;26089;43.538;5.250;2023-02-07T04:44:06;7.60;99.90
16289;DHT22;26089;43.538;5.250;2023-02-07T04:46:33;7.60;99.90
16289;DHT22;26089;43.538;5.250;2023-02-07T04:49:00;7.60;99.90
16289;DHT22;26089;43.538;5.250;2023-02-07T04:51:28;7.10;99.90
16289;DHT22;26089;43.538;5.250;2023-02-07T04:53:55;7.60;99.90
16289;DHT22;26089;43.538;5.250;2023-02-07T04:56:23;7.60;99.90
16289;DHT22;26089;43.538;5.250;2023-02-07T04:58:51;7.50;99.90
16289;DHT22;26089;43.538;5.250;2023-02-07T05:01:18;7.40;99.90
16289;DHT22;26089;43.538;5.250;2023-02-07T05:03:45;7.60;99.90
16289;DHT22;26089;43.538;5.250;2023-02-07T05:06:12;7.50;99.90
16289;DHT22;26089;43.538;5.250;2023-02-07T05:08:39;7.60;99.90
16289;DHT22;26089;43.538;5.250;2023-02-07T05:11:06;7.30;99.90
16289;DHT22;26089;43.538;5.250;2023-02-07T05:13:33;7.60;99.90
16289;DHT22;26089;43.538;5.250;2023-02-07T05:16:03;7.50;99.90
16289;DHT22;26089;43.538;5.250;2023-02-07T05:18:30;7.50;99.90
16289;DHT22;26089;43.538;5.250;2023-02-07T05:20:57;7.50;99.90
16289;DHT22;26089;43.538;5.250;2023-02-07T05:23:24;7.50;99.90
16289;DHT22;26089;43.538;5.250;2023-02-07T05:25:51;7.60;99.90
16289;DHT22;26089;43.538;5.250;2023-02-07T05:28:19;7.90;99.90
16289;DHT22;26089;43.538;5.250;2023-02-07T05:30:46;7.40;99.90
16289;DHT22;26089;43.538;5.250;2023-02-07T05:33:14;7.50;99.90
16289;DHT22;26089;43.538;5.250;2023-02-07T05:35:42;7.50;99.90
16289;DHT22;26089;43.538;5.250;2023-02-07T05:38:11;7.40;99.90
16289;DHT22;26089;43.538;5.250;2023-02-07T05:40:40;7.50;99.90
16289;DHT22;26089;43.538;5.250;2023-02-07T05:43:07;7.50;99.90
16289;DHT22;26089;43.538;5.250;2023-02-07T05:45:34;7.50;99.90
16289;DHT22;26089;43.538;5.250;2023-02-07T05:48:02;7.50;99.90
16289;DHT22;26089;43.538;5.250;2023-02-07T05:50:31;7.50;99.90
16289;DHT22;26089;43.538;5.250;2023-02-07T05:52:58;7.50;99.90
16289;DHT22;26089;43.538;5.250;2023-02-07T05:55:24;7.50;99.90
16289;DHT22;26089;43.538;5.250;2023-02-07T05:57:51;7.30;99.90
16289;DHT22;26089;43.538;5.250;2023-02-07T06:00:19;7.50;99.90
16289;DHT22;26089;43.538;5.250;2023-02-07T06:02:46;7.50;99.90
16289;DHT22;26089;43.538;5.250;2023-02-07T06:05:14;7.50;99.90
16289;DHT22;26089;43.538;5.250;2023-02-07T06:07:43;8.80;99.90
16289;DHT22;26089;43.538;5.250;2023-02-07T06:10:11;7.50;99.90
16289;DHT22;26089;43.538;5.250;2023-02-07T06:12:38;7.50;99.90
16289;DHT22;26089;43.538;5.250;2023-02-07T06:15:06;7.40;99.90
16289;DHT22;26089;43.538;5.250;2023-02-07T06:17:33;7.40;99.90
16289;DHT22;26089;43.538;5.250;2023-02-07T06:20:00;7.20;99.90
16289;DHT22;26089;43.538;5.250;2023-02-07T06:22:27;7.40;99.90
16289;DHT22;26089;43.538;5.250;2023-02-07T06:24:55;7.30;99.90
16289;DHT22;26089;43.538;5.250;2023-02-07T06:27:22;7.30;99.90
16289;DHT22;26089;43.538;5.250;2023-02-07T06:29:49;7.20;99.90
16289;DHT22;26089;43.538;5.250;2023-02-07T06:32:16;7.20;99.90
16289;DHT22;26089;43.538;5.250;2023-02-07T06:34:43;7.20;99.90
16289;DHT22;26089;43.538;5.250;2023-02-07T06:37:10;7.10;99.90
16289;DHT22;26089;43.538;5.250;2023-02-07T06:39:37;7.10;99.90
16289;DHT22;26089;43.538;5.250;2023-02-07T06:42:05;7.10;99.90
16289;DHT22;26089;43.538;5.250;2023-02-07T06:44:32;7.00;99.90
16289;DHT22;26089;43.538;5.250;2023-02-07T06:46:59;7.00;99.90
16289;DHT22;26089;43.538;5.250;2023-02-07T06:49:26;7.00;99.90
16289;DHT22;26089;43.538;5.250;2023-02-07T06:51:53;7.00;99.90
16289;DHT22;26089;43.538;5.250;2023-02-07T06:54:20;7.00;99.90
16289;DHT22;26089;43.538;5.250;2023-02-07T06:56:47;7.00;99.90
16289;DHT22;26089;43.538;5.250;2023-02-07T06:59:16;7.00;99.90
16289;DHT22;26089;43.538;5.250;2023-02-07T07:01:43;7.10;99.90
16289;DHT22;26089;43.538;5.250;2023-02-07T07:04:10;7.10;99.90
16289;DHT22;26089;43.538;5.250;2023-02-07T07:06:37;7.00;99.90
16289;DHT22;26089;43.538;5.250;2023-02-07T07:09:04;7.10;99.90
16289;DHT22;26089;43.538;5.250;2023-02-07T07:11:31;7.10;99.90
16289;DHT22;26089;43.538;5.250;2023-02-07T07:13:58;7.00;99.90
16289;DHT22;26089;43.538;5.250;2023-02-07T07:16:28;7.00;99.90
16289;DHT22;26089;43.538;5.250;2023-02-07T07:18:55;7.00;99.90
16289;DHT22;26089;43.538;5.250;2023-02-07T07:21:22;7.10;99.90
16289;DHT22;26089;43.538;5.250;2023-02-07T07:23:51;7.10;99.90
16289;DHT22;26089;43.538;5.250;2023-02-07T07:26:18;7.00;99.90
16289;DHT22;26089;43.538;5.250;2023-02-07T07:28:45;7.10;99.90
16289;DHT22;26089;43.538;5.250;2023-02-07T07:31:12;7.10;99.90
16289;DHT22;26089;43.538;5.250;2023-02-07T07:33:41;7.20;99.90
16289;DHT22;26089;43.538;5.250;2023-02-07T07:36:08;7.20;99.90
16289;DHT22;26089;43.538;5.250;2023-02-07T07:38:35;7.20;99.90
16289;DHT22;26089;43.538;5.250;2023-02-07T07:41:02;7.20;99.90
16289;DHT22;26089;43.538;5.250;2023-02-07T07:43:29;7.50;99.90
16289;DHT22;26089;43.538;5.250;2023-02-07T07:45:57;7.30;99.90
16289;DHT22;26089;43.538;5.250;2023-02-07T07:48:26;7.30;99.90
16289;DHT22;26089;43.538;5.250;2023-02-07T07:50:54;7.40;99.90
16289;DHT22;26089;43.538;5.250;2023-02-07T07:53:21;7.10;99.90
16289;DHT22;26089;43.538;5.250;2023-02-07T07:55:49;7.30;99.90
16289;DHT22;26089;43.538;5.250;2023-02-07T07:58:16;7.40;99.90
16289;DHT22;26089;43.538;5.250;2023-02-07T08:00:44;7.30;99.90
16289;DHT22;26089;43.538;5.250;2023-02-07T08:03:12;7.40;99.90
16289;DHT22;26089;43.538;5.250;2023-02-07T08:05:39;7.40;99.90
16289;DHT22;26089;43.538;5.250;2023-02-07T08:08:07;7.40;99.90
16289;DHT22;26089;43.538;5.250;2023-02-07T08:10:34;7.50;99.90
16289;DHT22;26089;43.538;5.250;2023-02-07T08:13:01;7.40;99.90
16289;DHT22;26089;43.538;5.250;2023-02-07T08:15:28;7.60;99.90
16289;DHT22;26089;43.538;5.250;2023-02-07T08:17:55;7.60;99.90
16289;DHT22;26089;43.538;5.250;2023-02-07T08:20:22;7.60;99.90
16289;DHT22;26089;43.538;5.250;2023-02-07T08:22:49;8.50;99.90
16289;DHT22;26089;43.538;5.250;2023-02-07T08:25:18;7.80;99.90
16289;DHT22;26089;43.538;5.250;2023-02-07T08:27:45;7.90;99.90
16289;DHT22;26089;43.538;5.250;2023-02-07T08:30:13;8.00;99.90
16289;DHT22;26089;43.538;5.250;2023-02-07T08:32:40;7.20;99.90
16289;DHT22;26089;43.538;5.250;2023-02-07T08:35:08;8.40;99.90
16289;DHT22;26089;43.538;5.250;2023-02-07T08:37:35;8.70;99.90
16289;DHT22;26089;43.538;5.250;2023-02-07T08:40:02;8.40;99.90
16289;DHT22;26089;43.538;5.250;2023-02-07T08:42:31;9.40;99.90
16289;DHT22;26089;43.538;5.250;2023-02-07T08:44:58;9.80;99.90
16289;DHT22;26089;43.538;5.250;2023-02-07T08:47:25;10.20;99.90
16289;DHT22;26089;43.538;5.250;2023-02-07T08:49:52;10.60;99.90
16289;DHT22;26089;43.538;5.250;2023-02-07T08:52:19;10.60;99.90
16289;DHT22;26089;43.538;5.250;2023-02-07T08:54:46;10.70;99.90
16289;DHT22;26089;43.538;5.250;2023-02-07T08:57:13;10.50;99.90
16289;DHT22;26089;43.538;5.250;2023-02-07T08:59:41;10.00;99.90
16289;DHT22;26089;43.538;5.250;2023-02-07T09:02:10;9.50;99.90
16289;DHT22;26089;43.538;5.250;2023-02-07T09:04:37;9.20;99.90
16289;DHT22;26089;43.538;5.250;2023-02-07T09:07:07;9.20;99.90
16289;DHT22;26089;43.538;5.250;2023-02-07T09:09:34;9.00;99.90
16289;DHT22;26089;43.538;5.250;2023-02-07T09:12:01;9.00;99.90
16289;DHT22;26089;43.538;5.250;2023-02-07T09:14:28;9.10;99.90
16289;DHT22;26089;43.538;5.250;2023-02-07T09:16:56;9.20;99.90
16289;DHT22;26089;43.538;5.250;2023-02-07T09:19:23;9.40;99.90
16289;DHT22;26089;43.538;5.250;2023-02-07T09:21:50;9.50;99.90
16289;DHT22;26089;43.538;5.250;2023-02-07T09:24:17;9.80;99.90
16289;DHT22;26089;43.538;5.250;2023-02-07T09:26:45;9.60;99.90
16289;DHT22;26089;43.538;5.250;2023-02-07T09:29:13;9.70;99.90
16289;DHT22;26089;43.538;5.250;2023-02-07T09:31:40;9.70;99.90
16289;DHT22;26089;43.538;5.250;2023-02-07T09:34:09;9.80;99.90
16289;DHT22;26089;43.538;5.250;2023-02-07T09:36:36;9.80;99.90
16289;DHT22;26089;43.538;5.250;2023-02-07T09:39:04;9.70;99.90
16289;DHT22;26089;43.538;5.250;2023-02-07T09:41:38;9.50;99.90
16289;DHT22;26089;43.538;5.250;2023-02-07T09:44:13;9.70;99.90
16289;DHT22;26089;43.538;5.250;2023-02-07T09:46:46;9.90;99.90
16289;DHT22;26089;43.538;5.250;2023-02-07T09:49:23;10.00;99.90
16289;DHT22;26089;43.538;5.250;2023-02-07T09:51:53;10.10;99.90
16289;DHT22;26089;43.538;5.250;2023-02-07T09:54:25;10.10;99.90
16289;DHT22;26089;43.538;5.250;2023-02-07T09:56:58;8.80;99.90
16289;DHT22;26089;43.538;5.250;2023-02-07T09:59:33;10.20;99.90
16289;DHT22;26089;43.538;5.250;2023-02-07T10:02:16;10.30;99.90
16289;DHT22;26089;43.538;5.250;2023-02-07T10:04:47;10.30;99.90
16289;DHT22;26089;43.538;5.250;2023-02-07T10:07:15;10.20;99.90
16289;DHT22;26089;43.538;5.250;2023-02-07T10:09:43;10.20;99.90
16289;DHT22;26089;43.538;5.250;2023-02-07T10:12:24;10.30;99.90
16289;DHT22;26089;43.538;5.250;2023-02-07T10:15:06;10.30;99.90
16289;DHT22;26089;43.538;5.250;2023-02-07T10:17:48;10.30;99.90
16289;DHT22;26089;43.538;5.250;2023-02-07T10:20:29;10.40;99.90
16289;DHT22;26089;43.538;5.250;2023-02-07T10:23:08;10.40;99.90
16289;DHT22;26089;43.538;5.250;2023-02-07T10:25:43;10.40;99.90
16289;DHT22;26089;43.538;5.250;2023-02-07T10:28:35;10.50;99.90
16289;DHT22;26089;43.538;5.250;2023-02-07T10:31:12;10.60;99.90
16289;DHT22;26089;43.538;5.250;2023-02-07T10:33:47;10.70;99.90
16289;DHT22;26089;43.538;5.250;2023-02-07T10:36:17;10.70;99.90
16289;DHT22;26089;43.538;5.250;2023-02-07T10:38:50;10.80;99.90
16289;DHT22;26089;43.538;5.250;2023-02-07T10:41:24;10.80;99.90
16289;DHT22;26089;43.538;5.250;2023-02-07T10:43:52;10.80;99.90
16289;DHT22;26089;43.538;5.250;2023-02-07T10:46:21;10.60;99.90
16289;DHT22;26089;43.538;5.250;2023-02-07T10:48:48;10.90;99.90
16289;DHT22;26089;43.538;5.250;2023-02-07T10:51:23;10.90;99.90
16289;DHT22;26089;43.538;5.250;2023-02-07T10:54:01;10.90;99.90
16289;DHT22;26089;43.538;5.250;2023-02-07T10:56:30;10.90;99.90
16289;DHT22;26089;43.538;5.250;2023-02-07T10:58:58;10.90;99.90
16289;DHT22;26089;43.538;5.250;2023-02-07T11:01:27;11.00;99.90
16289;DHT22;26089;43.538;5.250;2023-02-07T11:03:55;10.90;99.90
16289;DHT22;26089;43.538;5.250;2023-02-07T11:06:27;10.90;99.90
16289;DHT22;26089;43.538;5.250;2023-02-07T11:09:12;11.10;99.90
16289;DHT22;26089;43.538;5.250;2023-02-07T11:11:47;11.10;99.90
16289;DHT22;26089;43.538;5.250;2023-02-07T11:14:17;11.00;99.90
16289;DHT22;26089;43.538;5.250;2023-02-07T11:16:51;11.00;99.90
16289;DHT22;26089;43.538;5.250;2023-02-07T11:19:21;11.00;99.90
16289;DHT22;26089;43.538;5.250;2023-02-07T11:21:52;11.00;99.90
16289;DHT22;26089;43.538;5.250;2023-02-07T11:24:24;11.00;99.90
16289;DHT22;26089;43.538;5.250;2023-02-07T11:26:56;11.40;99.90
16289;DHT22;26089;43.538;5.250;2023-02-07T11:29:27;11.40;99.90
16289;DHT22;26089;43.538;5.250;2023-02-07T11:31:57;11.60;99.90
16289;DHT22;26089;43.538;5.250;2023-02-07T11:34:44;12.00;99.90
16289;DHT22;26089;43.538;5.250;2023-02-07T11:37:24;12.30;99.90
16289;DHT22;26089;43.538;5.250;2023-02-07T11:39:53;12.80;99.90
16289;DHT22;26089;43.538;5.250;2023-02-07T11:42:23;13.10;99.90
16289;DHT22;26089;43.538;5.250;2023-02-07T11:44:51;13.40;99.90
16289;DHT22;26089;43.538;5.250;2023-02-07T11:47:21;13.60;99.90
16289;DHT22;26089;43.538;5.250;2023-02-07T11:49:50;13.60;99.90
16289;DHT22;26089;43.538;5.250;2023-02-07T11:52:21;13.50;99.90
16289;DHT22;26089;43.538;5.250;2023-02-07T11:54:51;13.70;99.90
16289;DHT22;26089;43.538;5.250;2023-02-07T11:57:19;13.70;99.90
16289;DHT22;26089;43.538;5.250;2023-02-07T11:59:50;14.00;99.90
16289;DHT22;26089;43.538;5.250;2023-02-07T12:02:21;14.10;99.90
16289;DHT22;26089;43.538;5.250;2023-02-07T12:04:48;14.30;99.90
16289;DHT22;26089;43.538;5.250;2023-02-07T12:07:18;14.30;99.90
16289;DHT22;26089;43.538;5.250;2023-02-07T12:09:53;14.20;99.90
16289;DHT22;26089;43.538;5.250;2023-02-07T12:12:33;14.00;99.90
16289;DHT22;26089;43.538;5.250;2023-02-07T12:15:06;14.30;99.90
16289;DHT22;26089;43.538;5.250;2023-02-07T12:17:38;14.60;99.90
16289;DHT22;26089;43.538;5.250;2023-02-07T12:20:15;14.60;99.90
16289;DHT22;26089;43.538;5.250;2023-02-07T12:22:51;14.70;99.90
16289;DHT22;26089;43.538;5.250;2023-02-07T12:25:23;14.30;99.90
16289;DHT22;26089;43.538;5.250;2023-02-07T12:27:54;14.40;99.90
16289;DHT22;26089;43.538;5.250;2023-02-07T12:30:30;14.70;99.90
16289;DHT22;26089;43.538;5.250;2023-02-07T12:33:05;14.60;99.90
16289;DHT22;26089;43.538;5.250;2023-02-07T12:35:40;14.60;99.80
16289;DHT22;26089;43.538;5.250;2023-02-07T12:38:16;14.60;98.60
16289;DHT22;26089;43.538;5.250;2023-02-07T12:40:48;14.50;99.50
16289;DHT22;26089;43.538;5.250;2023-02-07T12:43:21;14.50;99.10
16289;DHT22;26089;43.538;5.250;2023-02-07T12:46:10;14.40;98.80
16289;DHT22;26089;43.538;5.250;2023-02-07T12:48:53;14.30;99.10
16289;DHT22;26089;43.538;5.250;2023-02-07T12:51:29;14.30;98.50
16289;DHT22;26089;43.538;5.250;2023-02-07T12:54:11;14.20;98.50
16289;DHT22;26089;43.538;5.250;2023-02-07T12:56:50;14.10;99.60
16289;DHT22;26089;43.538;5.250;2023-02-07T12:59:26;14.40;98.60
16289;DHT22;26089;43.538;5.250;2023-02-07T13:02:02;14.30;98.40
16289;DHT22;26089;43.538;5.250;2023-02-07T13:04:53;14.60;99.10
16289;DHT22;26089;43.538;5.250;2023-02-07T13:07:37;14.80;98.50
16289;DHT22;26089;43.538;5.250;2023-02-07T13:10:19;15.00;98.50
16289;DHT22;26089;43.538;5.250;2023-02-07T13:12:54;14.70;98.20
16289;DHT22;26089;43.538;5.250;2023-02-07T13:15:28;14.60;98.50
16289;DHT22;26089;43.538;5.250;2023-02-07T13:18:03;14.60;98.90
16289;DHT22;26089;43.538;5.250;2023-02-07T13:20:42;14.40;97.90
16289;DHT22;26089;43.538;5.250;2023-02-07T13:23:16;14.50;97.70
16289;DHT22;26089;43.538;5.250;2023-02-07T13:25:46;14.40;97.10
16289;DHT22;26089;43.538;5.250;2023-02-07T13:28:20;14.40;97.10
16289;DHT22;26089;43.538;5.250;2023-02-07T13:30:49;14.30;97.80
16289;DHT22;26089;43.538;5.250;2023-02-07T13:33:26;14.50;97.10
16289;DHT22;26089;43.538;5.250;2023-02-07T13:35:57;14.50;96.80
16289;DHT22;26089;43.538;5.250;2023-02-07T13:38:38;14.70;96.90
16289;DHT22;26089;43.538;5.250;2023-02-07T13:41:11;14.50;96.10
16289;DHT22;26089;43.538;5.250;2023-02-07T13:43:51;14.20;96.10
16289;DHT22;26089;43.538;5.250;2023-02-07T13:46:34;14.20;96.40
16289;DHT22;26089;43.538;5.250;2023-02-07T13:49:08;14.50;96.90
16289;DHT22;26089;43.538;5.250;2023-02-07T13:51:49;14.50;96.50
16289;DHT22;26089;43.538;5.250;2023-02-07T13:54:28;14.60;96.50
16289;DHT22;26089;43.538;5.250;2023-02-07T13:57:00;14.80;96.50
16289;DHT22;26089;43.538;5.250;2023-02-07T14:02:51;14.80;97.40
16289;DHT22;26089;43.538;5.250;2023-02-07T14:05:22;14.80;96.90
16289;DHT22;26089;43.538;5.250;2023-02-07T14:07:54;14.60;96.50
16289;DHT22;26089;43.538;5.250;2023-02-07T14:10:38;14.30;95.60
16289;DHT22;26089;43.538;5.250;2023-02-07T14:16:06;13.90;96.70
16289;DHT22;26089;43.538;5.250;2023-02-07T14:18:43;13.80;96.70
16289;DHT22;26089;43.538;5.250;2023-02-07T14:21:31;13.60;96.90
16289;DHT22;26089;43.538;5.250;2023-02-07T14:24:29;13.30;96.70
16289;DHT22;26089;43.538;5.250;2023-02-07T14:27:26;13.40;96.80
16289;DHT22;26089;43.538;5.250;2023-02-07T14:30:13;13.30;97.40
16289;DHT22;26089;43.538;5.250;2023-02-07T14:32:44;13.20;97.00
16289;DHT22;26089;43.538;5.250;2023-02-07T14:35:34;13.10;97.00
16289;DHT22;26089;43.538;5.250;2023-02-07T14:38:09;12.90;97.60
16289;DHT22;26089;43.538;5.250;2023-02-07T14:40:53;12.90;97.60
16289;DHT22;26089;43.538;5.250;2023-02-07T14:43:40;12.80;97.50
16289;DHT22;26089;43.538;5.250;2023-02-07T14:46:10;12.60;97.90
16289;DHT22;26089;43.538;5.250;2023-02-07T14:48:53;12.70;98.80
16289;DHT22;26089;43.538;5.250;2023-02-07T14:51:31;12.70;98.80
16289;DHT22;26089;43.538;5.250;2023-02-07T14:54:06;12.50;98.70
16289;DHT22;26089;43.538;5.250;2023-02-07T14:56:51;12.30;98.80
16289;DHT22;26089;43.538;5.250;2023-02-07T14:59:26;12.20;99.20
16289;DHT22;26089;43.538;5.250;2023-02-07T15:01:54;12.20;99.90
16289;DHT22;26089;43.538;5.250;2023-02-07T15:04:22;12.10;99.90
16289;DHT22;26089;43.538;5.250;2023-02-07T15:06:49;11.90;99.80
16289;DHT22;26089;43.538;5.250;2023-02-07T15:09:23;11.60;99.90
16289;DHT22;26089;43.538;5.250;2023-02-07T15:11:52;11.60;99.90
16289;DHT22;26089;43.538;5.250;2023-02-07T15:14:28;11.50;99.90
16289;DHT22;26089;43.538;5.250;2023-02-07T15:16:57;11.40;99.90
16289;DHT22;26089;43.538;5.250;2023-02-07T15:19:31;11.30;99.90
16289;DHT22;26089;43.538;5.250;2023-02-07T15:22:00;11.30;99.90
16289;DHT22;26089;43.538;5.250;2023-02-07T15:24:30;11.20;99.90
16289;DHT22;26089;43.538;5.250;2023-02-07T15:26:59;11.20;99.90
16289;DHT22;26089;43.538;5.250;2023-02-07T15:29:28;11.10;99.90
16289;DHT22;26089;43.538;5.250;2023-02-07T15:31:56;11.00;99.90
16289;DHT22;26089;43.538;5.250;2023-02-07T15:34:25;10.90;99.90
16289;DHT22;26089;43.538;5.250;2023-02-07T15:36:59;10.90;99.90
16289;DHT22;26089;43.538;5.250;2023-02-07T15:39:28;10.90;99.90
16289;DHT22;26089;43.538;5.250;2023-02-07T15:41:56;10.80;99.90
16289;DHT22;26089;43.538;5.250;2023-02-07T15:44:25;10.70;99.90
16289;DHT22;26089;43.538;5.250;2023-02-07T15:46:54;10.70;99.90
16289;DHT22;26089;43.538;5.250;2023-02-07T15:49:27;10.60;99.90
16289;DHT22;26089;43.538;5.250;2023-02-07T15:51:59;10.60;99.90
16289;DHT22;26089;43.538;5.250;2023-02-07T15:54:28;10.60;99.90
16289;DHT22;26089;43.538;5.250;2023-02-07T15:56:58;10.50;99.90
16289;DHT22;26089;43.538;5.250;2023-02-07T15:59:27;10.50;99.90
16289;DHT22;26089;43.538;5.250;2023-02-07T16:01:56;10.40;99.90
16289;DHT22;26089;43.538;5.250;2023-02-07T16:04:25;10.40;99.90
16289;DHT22;26089;43.538;5.250;2023-02-07T16:07:00;10.40;99.90
16289;DHT22;26089;43.538;5.250;2023-02-07T16:09:39;10.40;99.90
16289;DHT22;26089;43.538;5.250;2023-02-07T16:12:30;10.30;99.90
16289;DHT22;26089;43.538;5.250;2023-02-07T16:14:58;10.30;99.90
16289;DHT22;26089;43.538;5.250;2023-02-07T16:17:36;10.20;99.90
16289;DHT22;26089;43.538;5.250;2023-02-07T16:20:04;10.20;99.90
16289;DHT22;26089;43.538;5.250;2023-02-07T16:22:32;10.10;99.90
16289;DHT22;26089;43.538;5.250;2023-02-07T16:25:00;10.00;99.90
16289;DHT22;26089;43.538;5.250;2023-02-07T16:27:28;9.90;99.90
16289;DHT22;26089;43.538;5.250;2023-02-07T16:29:57;9.80;99.90
16289;DHT22;26089;43.538;5.250;2023-02-07T16:32:26;9.80;99.90
16289;DHT22;26089;43.538;5.250;2023-02-07T16:34:54;9.70;99.90
16289;DHT22;26089;43.538;5.250;2023-02-07T16:37:21;9.60;99.90
16289;DHT22;26089;43.538;5.250;2023-02-07T16:39:50;9.50;99.90
16289;DHT22;26089;43.538;5.250;2023-02-07T16:42:17;9.30;99.90
16289;DHT22;26089;43.538;5.250;2023-02-07T16:44:45;8.80;99.90
16289;DHT22;26089;43.538;5.250;2023-02-07T16:47:13;9.10;99.90
16289;DHT22;26089;43.538;5.250;2023-02-07T16:49:41;9.10;99.90
16289;DHT22;26089;43.538;5.250;2023-02-07T16:52:09;9.00;99.90